createdAt,value
2022-10-08T00:01:26.208Z,84.04
2022-10-08T00:03:56.341Z,83.83
2022-10-08T00:06:27.082Z,83.93
2022-10-08T00:08:58.578Z,84.08
2022-10-08T00:11:28.481Z,84.11
2022-10-08T00:13:56.897Z,83.99
2022-10-08T00:16:27.182Z,83.99
2022-10-08T00:18:56.977Z,84.09
2022-10-08T00:21:28.139Z,84.70
2022-10-08T00:23:59.085Z,84.18
2022-10-08T00:26:29.997Z,84.29
2022-10-08T00:28:59.517Z,84.17
2022-10-08T00:31:29.336Z,84.31
2022-10-08T00:33:59.471Z,83.94
2022-10-08T00:36:31.501Z,84.29
2022-10-08T00:39:02.560Z,84.54
2022-10-08T00:41:32.685Z,85.27
2022-10-08T00:44:03.351Z,86.01
2022-10-08T00:46:36.710Z,85.65
2022-10-08T00:49:12.332Z,85.71
2022-10-08T00:51:44.213Z,85.93
2022-10-08T00:56:43.571Z,85.60
2022-10-08T00:59:14.193Z,85.12
2022-10-08T01:01:43.565Z,84.08
2022-10-08T01:04:14.737Z,85.05
2022-10-08T01:06:50.788Z,85.00
2022-10-08T01:09:24.769Z,84.64
2022-10-08T01:11:59.297Z,84.39
2022-10-08T01:14:45.042Z,84.44
2022-10-08T01:17:24.237Z,85.15
2022-10-08T01:20:27.465Z,85.61
2022-10-08T01:23:19.831Z,85.89
2022-10-08T01:25:57.032Z,85.76
2022-10-08T01:28:32.432Z,87.36
2022-10-08T01:31:06.191Z,86.45
2022-10-08T01:33:40.763Z,86.56
2022-10-08T01:36:11.125Z,87.67
2022-10-08T01:38:45.046Z,88.35
2022-10-08T01:41:17.099Z,88.20
2022-10-08T01:43:51.083Z,88.38
2022-10-08T01:46:21.737Z,88.68
2022-10-08T01:48:53.843Z,88.54
2022-10-08T01:51:26.742Z,88.38
2022-10-08T01:53:56.022Z,88.13
2022-10-08T01:56:27.604Z,88.29
2022-10-08T01:59:00.574Z,88.20
2022-10-08T02:01:34.159Z,88.27
2022-10-08T02:04:19.512Z,88.27
2022-10-08T02:06:52.774Z,88.69
2022-10-08T02:09:21.011Z,88.53
2022-10-08T02:11:49.006Z,88.77
2022-10-08T02:14:18.715Z,88.87
2022-10-08T02:16:51.331Z,88.85
2022-10-08T02:19:25.235Z,89.64
2022-10-08T02:21:55.838Z,89.46
2022-10-08T02:24:29.852Z,89.72
2022-10-08T02:27:03.681Z,89.70
2022-10-08T02:29:38.295Z,89.29
2022-10-08T02:32:11.307Z,89.61
2022-10-08T02:34:45.380Z,89.70
2022-10-08T02:37:19.064Z,90.10
2022-10-08T02:39:52.431Z,90.77
2022-10-08T02:42:24.532Z,89.58
2022-10-08T02:44:57.724Z,88.89
2022-10-08T02:47:30.632Z,88.13
2022-10-08T02:50:02.758Z,87.32
2022-10-08T02:52:36.220Z,86.81
2022-10-08T02:55:09.531Z,87.00
2022-10-08T02:57:44.098Z,86.84
2022-10-08T03:00:14.446Z,86.87
2022-10-08T03:02:47.814Z,86.69
2022-10-08T03:05:20.203Z,86.10
2022-10-08T03:07:51.669Z,87.62
2022-10-08T03:10:22.023Z,87.70
2022-10-08T03:12:50.910Z,87.65
2022-10-08T03:15:20.571Z,89.03
2022-10-08T03:17:49.835Z,91.29
2022-10-08T03:20:17.824Z,94.97
2022-10-08T03:22:46.306Z,96.47
2022-10-08T03:25:14.465Z,98.87
2022-10-08T03:27:42.450Z,100.00
2022-10-08T03:30:12.036Z,98.75
2022-10-08T03:32:41.432Z,98.41
2022-10-08T03:35:09.705Z,96.61
2022-10-08T03:37:37.781Z,95.19
2022-10-08T03:40:06.543Z,92.88
2022-10-08T03:42:34.740Z,92.96
2022-10-08T03:45:02.642Z,95.53
2022-10-08T03:47:30.586Z,98.04
2022-10-08T03:49:59.938Z,98.23
2022-10-08T03:52:27.976Z,98.49
2022-10-08T03:54:55.913Z,99.72
2022-10-08T03:57:24.293Z,97.45
2022-10-08T03:59:52.255Z,95.49
2022-10-08T04:02:20.304Z,96.88
2022-10-08T04:04:48.345Z,97.25
2022-10-08T04:07:17.741Z,95.81
2022-10-08T04:09:45.708Z,94.50
2022-10-08T04:12:13.680Z,93.53
2022-10-08T04:14:41.697Z,92.62
2022-10-08T04:17:09.649Z,93.44
2022-10-08T04:19:37.644Z,93.50
2022-10-08T04:22:05.707Z,94.61
2022-10-08T04:24:34.989Z,92.71
2022-10-08T04:27:02.959Z,95.49
2022-10-08T04:29:30.883Z,99.88
2022-10-08T04:31:58.912Z,99.96
2022-10-08T04:34:26.865Z,100.00
2022-10-08T04:36:54.789Z,100.00
2022-10-08T04:39:22.867Z,99.67
2022-10-08T04:41:52.303Z,100.00
2022-10-08T04:44:20.319Z,100.00
2022-10-08T04:46:48.453Z,100.00
2022-10-08T04:49:16.671Z,100.00
2022-10-08T04:51:44.640Z,99.60
2022-10-08T04:54:12.743Z,98.01
2022-10-08T04:56:40.727Z,95.60
2022-10-08T04:59:10.136Z,97.09
2022-10-08T05:01:38.243Z,99.33
2022-10-08T05:04:06.325Z,100.00
2022-10-08T05:06:35.016Z,96.83
2022-10-08T05:09:04.254Z,93.10
2022-10-08T05:11:33.442Z,94.16
2022-10-08T05:14:02.021Z,97.50
2022-10-08T05:16:31.405Z,100.00
2022-10-08T05:18:59.699Z,100.00
2022-10-08T05:21:30.349Z,100.00
2022-10-08T05:24:01.140Z,100.00
2022-10-08T05:26:58.046Z,100.00
2022-10-08T05:29:20.231Z,100.00
2022-10-08T05:31:49.547Z,99.37
2022-10-08T05:34:17.874Z,95.60
2022-10-08T05:36:45.860Z,97.17
2022-10-08T05:39:14.135Z,94.14
2022-10-08T05:41:42.523Z,93.24
2022-10-08T05:44:11.758Z,91.86
2022-10-08T05:46:40.422Z,90.84
2022-10-08T05:49:21.066Z,91.89
2022-10-08T05:51:49.863Z,89.69
2022-10-08T05:54:18.318Z,89.45
2022-10-08T05:56:46.502Z,88.42
2022-10-08T05:59:19.117Z,86.28
2022-10-08T06:01:47.108Z,86.18
2022-10-08T06:04:18.431Z,86.10
2022-10-08T06:06:47.056Z,86.30
2022-10-08T06:09:18.195Z,85.72
2022-10-08T06:11:47.239Z,85.58
2022-10-08T06:14:17.715Z,83.45
2022-10-08T06:16:45.762Z,84.06
2022-10-08T06:19:14.014Z,84.06
2022-10-08T06:21:43.477Z,84.05
2022-10-08T06:24:13.350Z,82.86
2022-10-08T06:26:43.081Z,83.14
2022-10-08T06:29:15.171Z,82.85
2022-10-08T06:31:43.549Z,82.27
2022-10-08T06:34:11.572Z,82.29
2022-10-08T06:36:39.552Z,82.55
2022-10-08T06:39:12.355Z,82.78
2022-10-08T06:41:40.285Z,83.66
2022-10-08T06:44:12.427Z,83.78
2022-10-08T06:46:40.735Z,85.36
2022-10-08T06:49:08.876Z,86.54
2022-10-08T06:51:36.951Z,86.65
2022-10-08T06:54:07.762Z,87.85
2022-10-08T06:56:38.566Z,86.50
2022-10-08T06:59:07.778Z,86.52
2022-10-08T07:01:36.324Z,88.78
2022-10-08T07:04:06.927Z,91.60
2022-10-08T07:06:35.486Z,90.43
2022-10-08T07:09:04.841Z,90.38
2022-10-08T07:11:33.726Z,88.96
2022-10-08T07:14:03.178Z,88.23
2022-10-08T07:16:31.224Z,87.38
2022-10-08T07:18:59.460Z,87.09
2022-10-08T07:21:29.234Z,86.29
2022-10-08T07:23:59.552Z,85.74
2022-10-08T07:26:29.718Z,85.50
2022-10-08T07:28:59.750Z,85.10
2022-10-08T07:31:31.389Z,84.79
2022-10-08T07:34:00.725Z,84.59
2022-10-08T07:36:30.023Z,83.57
2022-10-08T07:38:59.669Z,83.52
2022-10-08T07:41:29.084Z,83.08
2022-10-08T07:43:59.838Z,82.77
2022-10-08T07:46:30.636Z,81.45
2022-10-08T07:49:01.516Z,81.71
2022-10-08T07:51:31.398Z,81.51
2022-10-08T07:54:02.781Z,81.61
2022-10-08T07:56:32.042Z,80.76
2022-10-08T07:59:00.790Z,80.48
2022-10-08T08:01:31.423Z,79.38
2022-10-08T08:04:02.211Z,78.37
2022-10-08T08:06:31.843Z,78.24
2022-10-08T08:09:01.548Z,77.73
2022-10-08T08:11:29.990Z,77.57
2022-10-08T08:13:58.407Z,77.13
2022-10-08T08:16:29.272Z,76.26
2022-10-08T08:19:01.688Z,75.78
2022-10-08T08:21:31.502Z,75.64
2022-10-08T08:24:03.842Z,74.29
2022-10-08T08:26:34.098Z,74.15
2022-10-08T08:29:05.047Z,73.76
2022-10-08T08:31:34.123Z,74.23
2022-10-08T08:34:07.128Z,73.49
2022-10-08T08:36:38.112Z,74.48
2022-10-08T08:39:07.497Z,74.49
2022-10-08T08:41:47.368Z,73.02
2022-10-08T08:44:21.143Z,73.59
2022-10-08T08:46:53.841Z,72.39
2022-10-08T08:49:28.386Z,70.77
2022-10-08T08:51:58.415Z,69.29
2022-10-08T08:54:34.833Z,68.07
2022-10-08T08:57:19.817Z,67.49
2022-10-08T08:59:50.482Z,66.81
2022-10-08T09:02:24.467Z,66.69
2022-10-08T09:04:58.551Z,64.72
2022-10-08T09:07:30.702Z,64.03
2022-10-08T09:10:00.752Z,64.59
2022-10-08T09:12:34.455Z,64.53
2022-10-08T09:15:04.177Z,64.26
2022-10-08T09:17:34.737Z,63.45
2022-10-08T09:20:04.927Z,62.27
2022-10-08T09:22:37.749Z,62.88
2022-10-08T09:25:08.427Z,62.61
2022-10-08T09:27:50.818Z,64.08
2022-10-08T09:30:31.138Z,63.93
2022-10-08T09:33:01.339Z,66.38
2022-10-08T09:35:33.818Z,65.93
2022-10-08T09:38:05.821Z,63.03
2022-10-08T09:40:34.143Z,61.95
2022-10-08T09:43:19.708Z,62.54
2022-10-08T09:45:49.520Z,61.57
2022-10-08T09:48:23.380Z,65.15
2022-10-08T09:51:00.212Z,62.56
2022-10-08T09:53:36.587Z,62.29
2022-10-08T09:56:07.452Z,60.88
2022-10-08T09:58:41.772Z,60.87
2022-10-08T10:01:15.787Z,60.08
2022-10-08T10:03:51.282Z,57.84
2022-10-08T10:06:29.003Z,58.89
2022-10-08T10:09:03.991Z,59.69
2022-10-08T10:11:38.467Z,59.63
2022-10-08T10:14:15.213Z,58.12
2022-10-08T10:16:45.876Z,57.44
2022-10-08T10:19:19.581Z,56.87
2022-10-08T10:21:55.827Z,56.98
2022-10-08T10:24:38.024Z,56.64
2022-10-08T10:27:12.465Z,56.24
2022-10-08T10:29:54.393Z,55.73
2022-10-08T10:32:31.725Z,55.16
2022-10-08T10:35:07.557Z,56.02
2022-10-08T10:37:47.613Z,57.00
2022-10-08T10:40:32.512Z,56.70
2022-10-08T10:43:29.033Z,56.45
2022-10-08T10:46:01.716Z,55.51
2022-10-08T10:48:30.604Z,55.39
2022-10-08T10:51:15.089Z,55.25
2022-10-08T10:53:54.381Z,54.69
2022-10-08T10:56:23.618Z,54.81
2022-10-08T10:59:08.931Z,56.11
2022-10-08T11:01:45.515Z,56.81
2022-10-08T11:04:23.066Z,56.92
2022-10-08T11:07:02.882Z,57.08
2022-10-08T11:09:52.425Z,57.35
2022-10-08T11:12:32.270Z,55.47
2022-10-08T11:15:07.123Z,55.25
2022-10-08T11:17:52.263Z,56.11
2022-10-08T11:20:39.666Z,57.19
2022-10-08T11:23:19.676Z,56.62
2022-10-08T11:26:20.505Z,57.56
2022-10-08T11:28:54.874Z,56.01
2022-10-08T11:31:34.383Z,56.03
2022-10-08T11:34:04.560Z,55.50
2022-10-08T11:36:38.703Z,56.19
2022-10-08T11:39:15.865Z,59.30
2022-10-08T11:41:53.562Z,59.85
2022-10-08T11:44:22.148Z,59.67
2022-10-08T11:46:50.278Z,58.70
2022-10-08T11:49:50.981Z,60.17
2022-10-08T11:52:19.212Z,59.87
2022-10-08T11:54:55.797Z,59.22
2022-10-08T12:00:34.030Z,54.93
2022-10-08T12:03:05.783Z,52.86
2022-10-08T12:05:46.704Z,51.59
2022-10-08T12:08:48.937Z,49.42
2022-10-08T12:11:48.317Z,46.88
2022-10-08T12:14:45.522Z,46.83
2022-10-08T12:17:14.062Z,50.05
2022-10-08T12:20:19.982Z,47.52
2022-10-08T12:23:06.410Z,48.44
2022-10-08T12:25:38.492Z,47.60
2022-10-08T12:28:47.586Z,47.45
2022-10-08T12:31:29.072Z,48.27
2022-10-08T12:33:59.807Z,46.73
2022-10-08T12:36:46.948Z,46.24
2022-10-08T12:39:34.647Z,47.98
2022-10-08T12:42:10.783Z,53.90
2022-10-08T12:44:50.640Z,52.40
2022-10-08T12:47:29.670Z,51.93
2022-10-08T12:50:01.618Z,50.08
2022-10-08T12:52:35.481Z,52.80
2022-10-08T12:55:06.256Z,52.67
2022-10-08T12:57:37.401Z,53.64
2022-10-08T13:00:09.466Z,54.07
2022-10-08T13:02:41.227Z,55.32
2022-10-08T13:05:26.209Z,54.74
2022-10-08T13:07:54.851Z,56.51
2022-10-08T13:10:25.262Z,55.39
2022-10-08T13:13:01.275Z,54.81
2022-10-08T13:15:30.783Z,53.96
2022-10-08T13:18:00.265Z,52.25
2022-10-08T13:20:28.285Z,53.18
2022-10-08T13:22:56.205Z,52.80
2022-10-08T13:25:36.330Z,55.04
2022-10-08T13:28:12.447Z,55.26
2022-10-08T13:30:41.438Z,56.18
2022-10-08T13:33:18.459Z,56.79
2022-10-08T13:35:53.721Z,56.89
2022-10-08T13:38:24.722Z,56.36
2022-10-08T13:40:54.533Z,57.85
2022-10-08T13:43:23.231Z,57.63
2022-10-08T13:45:51.176Z,56.09
2022-10-08T13:48:20.583Z,58.11
2022-10-08T13:50:51.207Z,58.67
2022-10-08T13:53:21.763Z,57.38
2022-10-08T13:55:51.226Z,57.53
2022-10-08T13:58:21.399Z,58.01
2022-10-08T14:00:50.069Z,56.32
2022-10-08T14:03:18.169Z,57.47
2022-10-08T14:05:49.286Z,57.99
2022-10-08T14:08:20.195Z,58.15
2022-10-08T14:10:48.421Z,57.01
2022-10-08T14:13:17.260Z,58.49
2022-10-08T14:15:45.358Z,57.60
2022-10-08T14:18:13.347Z,59.30
2022-10-08T14:20:41.481Z,59.73
2022-10-08T14:23:13.423Z,60.96
2022-10-08T14:25:41.406Z,60.40
2022-10-08T14:28:09.458Z,60.64
2022-10-08T14:30:37.633Z,60.69
2022-10-08T14:33:10.293Z,63.34
2022-10-08T14:35:39.146Z,62.50
2022-10-08T14:38:07.601Z,60.45
2022-10-08T14:40:37.001Z,62.42
2022-10-08T14:43:05.039Z,61.71
2022-10-08T14:45:33.144Z,62.76
2022-10-08T14:48:01.117Z,63.88
2022-10-08T14:50:29.106Z,63.39
2022-10-08T14:52:57.157Z,65.59
2022-10-08T14:55:25.132Z,65.67
2022-10-08T14:57:54.496Z,66.67
2022-10-08T15:00:22.583Z,67.16
2022-10-08T15:02:50.684Z,68.33
2022-10-08T15:05:18.766Z,67.77
2022-10-08T15:07:47.098Z,68.95
2022-10-08T15:10:15.341Z,66.76
2022-10-08T15:12:43.390Z,67.67
2022-10-08T15:15:12.952Z,68.77
2022-10-08T15:17:41.044Z,66.99
2022-10-08T15:20:09.893Z,69.92
2022-10-08T15:22:37.894Z,70.37
2022-10-08T15:25:06.569Z,70.47
2022-10-08T15:27:34.636Z,72.22
2022-10-08T15:30:02.618Z,73.55
2022-10-08T15:32:32.312Z,73.91
2022-10-08T15:35:00.372Z,74.16
2022-10-08T15:37:28.366Z,74.99
2022-10-08T15:39:56.337Z,75.19
2022-10-08T15:42:24.284Z,75.31
2022-10-08T15:44:52.258Z,75.59
2022-10-08T15:47:20.250Z,75.81
2022-10-08T15:49:49.732Z,75.21
2022-10-08T15:52:19.810Z,76.78
2022-10-08T15:54:48.746Z,76.67
2022-10-08T15:57:18.604Z,76.30
2022-10-08T15:59:46.663Z,75.96
2022-10-08T16:02:17.477Z,75.87
2022-10-08T16:04:47.626Z,76.52
2022-10-08T16:07:17.960Z,75.82
2022-10-08T16:09:46.109Z,76.05
2022-10-08T16:12:14.076Z,76.50
2022-10-08T16:14:42.014Z,78.13
2022-10-08T16:17:10.205Z,78.49
2022-10-08T16:19:38.358Z,77.88
2022-10-08T16:22:07.753Z,79.77
2022-10-08T16:24:37.086Z,79.97
2022-10-08T16:27:05.244Z,79.49
2022-10-08T16:29:33.212Z,78.84
2022-10-08T16:32:01.210Z,79.55
2022-10-08T16:34:30.672Z,79.26
2022-10-08T16:37:01.444Z,79.09
2022-10-08T16:39:29.598Z,78.33
2022-10-08T16:41:59.021Z,79.32
2022-10-08T16:44:27.361Z,78.93
2022-10-08T16:46:55.347Z,78.77
2022-10-08T16:49:26.252Z,79.60
2022-10-08T16:51:56.306Z,79.43
2022-10-08T16:54:24.422Z,78.12
2022-10-08T16:56:53.143Z,77.78
2022-10-08T16:59:24.481Z,77.28
2022-10-08T17:01:54.752Z,79.94
2022-10-08T17:04:24.634Z,80.52
2022-10-08T17:06:53.297Z,79.51
2022-10-08T17:09:21.651Z,78.65
2022-10-08T17:11:50.110Z,79.66
2022-10-08T17:14:18.109Z,80.53
2022-10-08T17:16:47.521Z,80.30
2022-10-08T17:19:15.726Z,81.84
2022-10-08T17:21:43.987Z,82.41
2022-10-08T17:24:13.159Z,83.15
2022-10-08T17:26:42.945Z,84.32
2022-10-08T17:29:13.021Z,84.43
2022-10-08T17:31:41.149Z,85.70
2022-10-08T17:34:11.617Z,83.10
2022-10-08T17:36:41.682Z,84.95
2022-10-08T17:39:12.644Z,85.13
2022-10-08T17:41:42.521Z,85.34
2022-10-08T17:44:11.620Z,85.30
2022-10-08T17:46:42.787Z,84.98
2022-10-08T17:49:12.674Z,83.59
2022-10-08T17:51:40.756Z,83.85
2022-10-08T17:54:12.093Z,86.69
2022-10-08T17:56:40.791Z,87.09
2022-10-08T17:59:09.115Z,85.66
2022-10-08T18:01:41.473Z,85.87
2022-10-08T18:04:16.740Z,87.64
2022-10-08T18:06:46.640Z,89.04
2022-10-08T18:09:16.449Z,89.13
2022-10-08T18:11:46.550Z,88.16
2022-10-08T18:14:15.051Z,89.57
2022-10-08T18:16:47.635Z,89.37
2022-10-08T18:19:18.673Z,90.21
2022-10-08T18:21:47.106Z,88.13
2022-10-08T18:24:18.328Z,89.54
2022-10-08T18:26:46.795Z,89.38
2022-10-08T18:29:15.505Z,88.97
2022-10-08T18:31:45.052Z,89.11
2022-10-08T18:34:15.474Z,91.15
2022-10-08T18:36:45.693Z,91.46
2022-10-08T18:39:15.470Z,89.58
2022-10-08T18:41:45.123Z,90.86
2022-10-08T18:44:15.324Z,90.12
2022-10-08T18:46:44.695Z,90.80
2022-10-08T18:49:14.431Z,90.29
2022-10-08T18:51:42.433Z,92.16
2022-10-08T18:54:13.094Z,92.76
2022-10-08T18:56:41.520Z,93.72
2022-10-08T18:59:13.130Z,93.91
2022-10-08T19:01:42.853Z,94.32
2022-10-08T19:04:15.782Z,94.94
2022-10-08T19:06:45.474Z,94.86
2022-10-08T19:09:15.556Z,95.15
2022-10-08T19:11:45.426Z,95.33
2022-10-08T19:14:15.398Z,96.08
2022-10-08T19:16:43.541Z,94.76
2022-10-08T19:19:14.681Z,94.34
2022-10-08T19:21:43.390Z,94.91
2022-10-08T19:24:16.010Z,94.91
2022-10-08T19:26:44.421Z,94.98
2022-10-08T19:29:16.441Z,94.97
2022-10-08T19:31:47.428Z,96.74
2022-10-08T19:34:20.152Z,95.64
2022-10-08T19:36:48.260Z,94.46
2022-10-08T19:39:19.694Z,94.39
2022-10-08T19:41:47.846Z,93.22
2022-10-08T19:44:16.619Z,94.18
2022-10-08T19:46:44.959Z,94.71
2022-10-08T19:49:13.556Z,95.28
2022-10-08T19:51:42.194Z,94.68
2022-10-08T19:54:10.415Z,95.33
2022-10-08T19:56:40.180Z,94.18
2022-10-08T19:59:08.356Z,95.31
2022-10-08T20:01:37.917Z,95.86
2022-10-08T20:04:07.579Z,95.72
2022-10-08T20:06:38.755Z,96.67
2022-10-08T20:09:09.884Z,94.07
2022-10-08T20:11:39.976Z,94.66
2022-10-08T20:14:08.482Z,94.94
2022-10-08T20:16:37.725Z,94.80
2022-10-08T20:19:08.034Z,94.22
2022-10-08T20:21:38.495Z,95.91
2022-10-08T20:24:07.104Z,96.26
2022-10-08T20:26:36.483Z,97.27
2022-10-08T20:29:08.153Z,96.89
2022-10-08T20:31:37.762Z,95.30
2022-10-08T20:34:07.474Z,93.93
2022-10-08T20:36:35.931Z,96.14
2022-10-08T20:39:04.863Z,96.85
2022-10-08T20:41:32.920Z,96.27
2022-10-08T20:44:02.975Z,97.35
2022-10-08T20:46:34.014Z,95.94
2022-10-08T20:49:02.619Z,96.13
2022-10-08T20:51:31.458Z,94.34
2022-10-08T20:54:01.249Z,92.91
2022-10-08T20:56:29.984Z,93.90
2022-10-08T20:58:58.749Z,92.23
2022-10-08T21:01:31.471Z,91.94
2022-10-08T21:04:01.643Z,92.38
2022-10-08T21:06:31.579Z,91.57
2022-10-08T21:09:00.399Z,93.04
2022-10-08T21:11:30.349Z,95.23
2022-10-08T21:13:59.552Z,92.60
2022-10-08T21:16:30.271Z,94.21
2022-10-08T21:19:01.121Z,95.90
2022-10-08T21:21:30.840Z,95.33
2022-10-08T21:23:59.329Z,95.09
2022-10-08T21:26:29.634Z,94.33
2022-10-08T21:28:59.437Z,95.90
2022-10-08T21:31:29.080Z,94.01
2022-10-08T21:33:57.976Z,93.85
2022-10-08T21:36:29.706Z,93.02
2022-10-08T21:38:59.464Z,93.38
2022-10-08T21:41:32.897Z,93.48
2022-10-08T21:44:03.296Z,94.13
2022-10-08T21:46:34.677Z,92.95
2022-10-08T21:49:04.618Z,95.06
2022-10-08T21:51:34.789Z,95.67
2022-10-08T21:54:05.599Z,94.81
2022-10-08T21:56:35.907Z,95.56
2022-10-08T21:59:06.309Z,96.85
2022-10-08T22:01:37.474Z,95.37
2022-10-08T22:04:07.851Z,96.29
2022-10-08T22:06:39.096Z,97.27
2022-10-08T22:09:07.955Z,97.88
2022-10-08T22:11:36.131Z,98.53
2022-10-08T22:14:04.409Z,97.87
2022-10-08T22:16:32.520Z,99.21
2022-10-08T22:19:00.672Z,100.00
2022-10-08T22:21:28.923Z,98.08
2022-10-08T22:23:58.348Z,98.48
2022-10-08T22:26:29.472Z,97.90
2022-10-08T22:28:58.446Z,97.39
2022-10-08T22:31:27.505Z,97.07
2022-10-08T22:33:55.706Z,97.59
2022-10-08T22:36:25.366Z,98.44
2022-10-08T22:38:54.521Z,98.56
2022-10-08T22:41:25.565Z,97.93
2022-10-08T22:43:54.139Z,96.42
2022-10-08T22:46:24.229Z,97.33
2022-10-08T22:48:52.730Z,98.13
2022-10-08T22:51:22.422Z,97.68
2022-10-08T22:53:50.640Z,97.23
2022-10-08T22:56:20.754Z,95.74
2022-10-08T22:58:51.334Z,95.60
2022-10-08T23:01:21.479Z,96.54
2022-10-08T23:03:50.603Z,97.07
2022-10-08T23:06:20.422Z,95.28
2022-10-08T23:08:50.177Z,92.85
2022-10-08T23:11:18.253Z,91.81
2022-10-08T23:13:46.574Z,89.82
2022-10-08T23:16:16.709Z,89.11
2022-10-08T23:18:47.440Z,90.32
2022-10-08T23:21:18.041Z,92.51
2022-10-08T23:23:47.557Z,93.51
2022-10-08T23:26:17.030Z,92.41
2022-10-08T23:28:46.094Z,91.59
2022-10-08T23:31:17.589Z,91.02
2022-10-08T23:33:49.705Z,89.14
2022-10-08T23:36:19.676Z,87.38
2022-10-08T23:38:47.992Z,87.78
2022-10-08T23:41:16.376Z,88.91
2022-10-08T23:43:46.145Z,86.18
2022-10-08T23:46:17.014Z,83.29
2022-10-08T23:48:45.296Z,85.34
2022-10-08T23:51:14.862Z,84.25
2022-10-08T23:53:44.286Z,86.10
2022-10-08T23:56:13.014Z,84.83
2022-10-08T23:58:41.456Z,82.86
